createdAt,value
2023-05-13T00:01:58.138Z,60.55
2023-05-13T00:04:25.110Z,60.63
2023-05-13T00:06:52.506Z,60.85
2023-05-13T00:09:19.557Z,61.09
2023-05-13T00:11:46.641Z,61.18
2023-05-13T00:14:14.913Z,61.02
2023-05-13T00:16:44.189Z,61.02
2023-05-13T00:19:12.973Z,61.05
2023-05-13T00:21:40.021Z,60.97
2023-05-13T00:24:07.523Z,60.97
2023-05-13T00:26:34.657Z,60.75
2023-05-13T00:29:01.645Z,60.79
2023-05-13T00:31:28.822Z,60.85
2023-05-13T00:33:56.502Z,61.15
2023-05-13T00:36:24.281Z,61.54
2023-05-13T00:38:51.364Z,61.94
2023-05-13T00:41:18.938Z,62.22
2023-05-13T00:43:46.058Z,62.35
2023-05-13T00:46:13.166Z,62.44
2023-05-13T00:48:40.174Z,62.71
2023-05-13T00:51:09.936Z,62.98
2023-05-13T00:53:37.878Z,63.31
2023-05-13T00:56:05.248Z,63.72
2023-05-13T00:58:32.364Z,63.94
2023-05-13T01:01:05.536Z,64.03
2023-05-13T01:03:59.444Z,64.06
2023-05-13T01:06:44.878Z,64.33
2023-05-13T01:09:18.555Z,64.54
2023-05-13T01:11:45.596Z,64.39
2023-05-13T01:14:22.313Z,64.33
2023-05-13T01:17:02.466Z,64.36
2023-05-13T01:19:43.328Z,64.29
2023-05-13T01:22:11.898Z,64.18
2023-05-13T01:24:38.923Z,64.35
2023-05-13T01:27:06.146Z,64.26
2023-05-13T01:29:33.208Z,64.28
2023-05-13T01:32:00.427Z,64.10
2023-05-13T01:34:27.654Z,64.11
2023-05-13T01:36:54.692Z,63.97
2023-05-13T01:39:22.256Z,63.82
2023-05-13T01:41:49.635Z,63.69
2023-05-13T01:44:18.057Z,63.49
2023-05-13T01:46:45.597Z,63.19
2023-05-13T01:49:13.100Z,62.85
2023-05-13T01:51:41.545Z,62.76
2023-05-13T01:54:08.815Z,62.59
2023-05-13T01:56:40.364Z,62.63
2023-05-13T01:59:10.701Z,62.48
2023-05-13T02:01:37.750Z,62.27
2023-05-13T02:04:07.354Z,62.12
2023-05-13T02:06:34.516Z,62.29
2023-05-13T02:09:01.994Z,62.30
2023-05-13T02:11:29.414Z,62.37
2023-05-13T02:13:57.631Z,62.41
2023-05-13T02:16:24.677Z,62.46
2023-05-13T02:18:51.804Z,62.44
2023-05-13T02:21:19.723Z,62.40
2023-05-13T02:23:46.946Z,62.36
2023-05-13T02:26:13.921Z,62.38
2023-05-13T02:28:40.988Z,62.33
2023-05-13T02:31:08.342Z,62.23
2023-05-13T02:33:35.852Z,62.18
2023-05-13T02:36:02.965Z,61.99
2023-05-13T02:38:30.052Z,61.83
2023-05-13T02:40:57.124Z,61.53
2023-05-13T02:43:27.699Z,61.36
2023-05-13T02:45:57.294Z,61.15
2023-05-13T02:48:24.884Z,60.87
2023-05-13T02:50:53.015Z,60.55
2023-05-13T02:53:20.591Z,60.20
2023-05-13T02:55:52.590Z,60.01
2023-05-13T02:58:20.566Z,59.87
2023-05-13T03:00:47.683Z,59.50
2023-05-13T03:03:15.941Z,59.44
2023-05-13T03:05:43.199Z,59.17
2023-05-13T03:08:10.226Z,58.93
2023-05-13T03:10:38.274Z,58.79
2023-05-13T03:13:08.943Z,58.59
2023-05-13T03:15:36.371Z,58.26
2023-05-13T03:18:03.851Z,58.23
2023-05-13T03:20:31.528Z,58.13
2023-05-13T03:22:59.780Z,58.13
2023-05-13T03:25:27.807Z,58.24
2023-05-13T03:27:57.620Z,58.08
2023-05-13T03:30:26.625Z,58.06
2023-05-13T03:33:00.145Z,57.87
2023-05-13T03:35:27.520Z,57.79
2023-05-13T03:37:54.915Z,57.58
2023-05-13T03:40:22.350Z,57.31
2023-05-13T03:42:52.190Z,57.19
2023-05-13T03:45:20.668Z,57.11
2023-05-13T03:47:50.461Z,57.01
2023-05-13T03:50:18.066Z,56.77
2023-05-13T03:52:47.094Z,56.48
2023-05-13T03:55:15.669Z,56.17
2023-05-13T03:57:48.323Z,55.64
2023-05-13T04:00:17.595Z,55.05
2023-05-13T04:02:44.841Z,54.43
2023-05-13T04:05:14.211Z,53.69
2023-05-13T04:07:47.665Z,52.96
2023-05-13T04:10:15.810Z,52.39
2023-05-13T04:12:43.843Z,51.87
2023-05-13T04:15:11.076Z,51.00
2023-05-13T04:17:38.274Z,50.34
2023-05-13T04:20:07.749Z,49.84
2023-05-13T04:22:35.490Z,49.39
2023-05-13T04:25:02.853Z,48.86
2023-05-13T04:27:29.856Z,48.31
2023-05-13T04:30:09.189Z,48.52
2023-05-13T04:32:39.396Z,48.45
2023-05-13T04:35:09.966Z,48.15
2023-05-13T04:37:38.991Z,47.65
2023-05-13T04:40:11.653Z,47.24
2023-05-13T04:42:38.692Z,46.41
2023-05-13T04:45:06.425Z,46.07
2023-05-13T04:47:35.509Z,46.01
2023-05-13T04:50:02.594Z,46.05
2023-05-13T04:52:31.387Z,45.95
2023-05-13T04:54:58.513Z,45.88
2023-05-13T04:57:31.737Z,45.61
2023-05-13T04:59:59.653Z,45.49
2023-05-13T05:02:30.403Z,45.48
2023-05-13T05:04:57.670Z,45.56
2023-05-13T05:07:24.828Z,45.43
2023-05-13T05:09:52.347Z,45.46
2023-05-13T05:12:19.580Z,45.25
2023-05-13T05:14:46.582Z,45.13
2023-05-13T05:17:13.647Z,45.14
2023-05-13T05:19:41.514Z,44.90
2023-05-13T05:22:09.005Z,44.63
2023-05-13T05:24:36.006Z,44.23
2023-05-13T05:27:03.624Z,43.46
2023-05-13T05:29:30.696Z,43.01
2023-05-13T05:31:57.924Z,42.18
2023-05-13T05:34:26.796Z,42.08
2023-05-13T05:36:56.050Z,42.02
2023-05-13T05:39:23.297Z,41.59
2023-05-13T05:41:50.492Z,41.13
2023-05-13T05:44:17.741Z,41.02
2023-05-13T05:46:45.539Z,40.74
2023-05-13T05:49:13.734Z,40.56
2023-05-13T05:51:41.959Z,40.26
2023-05-13T05:54:09.160Z,39.69
2023-05-13T05:56:39.105Z,39.36
2023-05-13T05:59:06.664Z,39.04
2023-05-13T06:01:37.945Z,38.94
2023-05-13T06:04:05.786Z,38.59
2023-05-13T06:06:33.107Z,38.03
2023-05-13T06:09:00.486Z,37.38
2023-05-13T06:11:27.814Z,37.49
2023-05-13T06:13:57.745Z,37.15
2023-05-13T06:16:24.830Z,36.47
2023-05-13T06:18:52.589Z,36.27
2023-05-13T06:21:19.761Z,35.37
2023-05-13T06:23:49.442Z,35.12
2023-05-13T06:26:17.209Z,34.60
2023-05-13T06:28:44.942Z,34.35
2023-05-13T06:31:12.213Z,34.58
2023-05-13T06:33:40.624Z,34.47
2023-05-13T06:36:09.503Z,34.18
2023-05-13T06:38:37.814Z,33.95
2023-05-13T06:41:05.215Z,33.27
2023-05-13T06:43:39.175Z,32.72
2023-05-13T06:46:21.184Z,32.07
2023-05-13T06:48:52.693Z,31.43
2023-05-13T06:51:19.714Z,31.71
2023-05-13T06:53:52.637Z,30.80
2023-05-13T06:56:27.089Z,29.85
2023-05-13T06:58:56.663Z,29.64
2023-05-13T07:01:29.900Z,30.05
2023-05-13T07:03:57.682Z,29.34
2023-05-13T07:06:24.867Z,29.38
2023-05-13T07:08:52.150Z,28.60
2023-05-13T07:11:20.111Z,28.06
2023-05-13T07:15:24.682Z,28.81
2023-05-13T07:17:52.412Z,28.06
2023-05-13T07:20:23.116Z,28.03
2023-05-13T07:22:54.186Z,27.48
2023-05-13T07:25:22.222Z,27.94
2023-05-13T07:27:50.208Z,28.14
2023-05-13T07:30:18.778Z,28.59
2023-05-13T07:32:46.031Z,27.99
2023-05-13T07:35:13.197Z,27.33
2023-05-13T07:37:40.546Z,27.19
2023-05-13T07:40:08.429Z,26.92
2023-05-13T07:42:37.406Z,26.41
2023-05-13T07:45:11.303Z,26.42
2023-05-13T07:47:39.274Z,26.14
2023-05-13T07:50:07.467Z,26.57
2023-05-13T07:52:34.875Z,26.41
2023-05-13T07:55:02.734Z,25.65
2023-05-13T07:57:37.437Z,25.93
2023-05-13T08:00:07.758Z,25.91
2023-05-13T08:02:41.770Z,25.35
2023-05-13T08:05:11.965Z,24.69
2023-05-13T08:07:39.228Z,24.16
2023-05-13T08:10:10.025Z,24.07
2023-05-13T08:12:37.984Z,24.45
2023-05-13T08:20:44.055Z,24.75
2023-05-13T08:23:12.488Z,24.42
2023-05-13T08:25:43.225Z,24.03
2023-05-13T08:28:27.405Z,23.05
2023-05-13T08:30:54.601Z,22.95
2023-05-13T08:33:29.829Z,23.13
2023-05-13T08:36:29.512Z,22.81
2023-05-13T08:38:56.882Z,22.84
2023-05-13T08:41:23.932Z,22.72
2023-05-13T08:43:51.011Z,22.23
2023-05-13T08:46:18.204Z,22.31
2023-05-13T08:48:45.566Z,22.69
2023-05-13T08:51:13.381Z,22.86
2023-05-13T08:53:41.301Z,23.02
2023-05-13T08:56:08.698Z,22.72
2023-05-13T08:58:35.873Z,22.28
2023-05-13T09:01:04.603Z,21.61
2023-05-13T09:03:31.678Z,21.75
2023-05-13T09:06:01.893Z,22.00
2023-05-13T09:08:29.136Z,21.84
2023-05-13T09:10:57.108Z,22.35
2023-05-13T09:13:26.920Z,22.09
2023-05-13T09:15:54.266Z,21.54
2023-05-13T09:18:21.925Z,21.09
2023-05-13T09:20:49.273Z,21.04
2023-05-13T09:23:16.372Z,21.43
2023-05-13T09:25:43.369Z,21.48
2023-05-13T09:28:14.662Z,21.43
2023-05-13T09:30:44.530Z,21.98
2023-05-13T09:33:14.168Z,20.96
2023-05-13T09:35:54.169Z,21.08
2023-05-13T09:38:25.574Z,21.03
2023-05-13T09:40:59.367Z,21.12
2023-05-13T09:43:29.010Z,20.61
2023-05-13T09:45:57.810Z,20.37
2023-05-13T09:48:26.617Z,20.31
2023-05-13T09:50:55.862Z,20.44
2023-05-13T09:53:23.645Z,20.95
2023-05-13T09:55:53.094Z,20.92
2023-05-13T09:58:21.354Z,21.10
2023-05-13T10:00:52.888Z,21.30
2023-05-13T10:03:21.524Z,21.20
2023-05-13T10:05:51.085Z,21.12
2023-05-13T10:08:18.414Z,20.80
2023-05-13T10:10:47.011Z,21.04
2023-05-13T10:13:16.617Z,20.46
2023-05-13T10:15:54.555Z,20.47
2023-05-13T10:18:22.594Z,20.24
2023-05-13T10:20:54.271Z,20.46
2023-05-13T10:23:23.295Z,20.61
2023-05-13T10:25:51.439Z,20.88
2023-05-13T10:28:18.546Z,20.81
2023-05-13T10:30:45.863Z,20.78
2023-05-13T10:33:13.492Z,20.82
2023-05-13T10:35:48.626Z,20.72
2023-05-13T10:38:31.426Z,20.75
2023-05-13T10:41:11.006Z,20.86
2023-05-13T10:43:38.680Z,21.21
2023-05-13T10:46:08.475Z,20.38
2023-05-13T10:48:41.055Z,19.29
2023-05-13T10:51:09.205Z,20.10
2023-05-13T10:53:39.275Z,19.76
2023-05-13T10:56:08.287Z,20.24
2023-05-13T10:58:39.147Z,20.59
2023-05-13T11:01:18.125Z,21.13
2023-05-13T11:03:55.707Z,20.81
2023-05-13T11:06:24.402Z,20.42
2023-05-13T11:08:55.076Z,20.52
2023-05-13T11:11:31.201Z,20.75
2023-05-13T11:14:14.875Z,20.58
2023-05-13T11:16:52.658Z,20.19
2023-05-13T11:19:27.449Z,20.17
2023-05-13T11:21:58.761Z,20.13
2023-05-13T11:24:26.738Z,20.13
2023-05-13T11:26:58.021Z,20.46
2023-05-13T11:29:38.994Z,20.90
2023-05-13T11:32:07.213Z,20.86
2023-05-13T11:34:34.728Z,20.68
2023-05-13T11:37:05.194Z,20.70
2023-05-13T11:39:34.036Z,19.99
2023-05-13T11:42:08.455Z,20.15
2023-05-13T11:44:35.589Z,20.38
2023-05-13T11:47:06.240Z,20.46
2023-05-13T11:49:36.648Z,20.66
2023-05-13T11:52:04.746Z,20.47
2023-05-13T11:54:33.118Z,20.17
2023-05-13T11:57:00.235Z,20.08
2023-05-13T11:59:33.335Z,19.86
2023-05-13T12:02:05.892Z,19.33
2023-05-13T12:04:34.046Z,19.40
2023-05-13T12:07:01.078Z,19.13
2023-05-13T12:09:28.074Z,19.36
2023-05-13T12:11:55.119Z,19.13
2023-05-13T12:14:22.205Z,19.30
2023-05-13T12:16:49.859Z,19.42
2023-05-13T12:19:17.093Z,19.26
2023-05-13T12:21:44.753Z,19.14
2023-05-13T12:24:19.608Z,19.41
2023-05-13T12:26:46.672Z,19.42
2023-05-13T12:29:13.742Z,19.13
2023-05-13T12:31:44.378Z,19.59
2023-05-13T12:34:12.926Z,19.99
2023-05-13T12:36:40.312Z,19.64
2023-05-13T12:39:19.869Z,19.39
2023-05-13T12:41:57.656Z,18.95
2023-05-13T12:44:29.400Z,19.14
2023-05-13T12:47:01.377Z,18.72
2023-05-13T12:49:28.591Z,19.02
2023-05-13T12:51:57.012Z,18.96
2023-05-13T12:54:25.569Z,18.48
2023-05-13T12:56:52.655Z,18.25
2023-05-13T12:59:19.696Z,18.51
2023-05-13T13:01:48.376Z,18.31
2023-05-13T13:04:18.038Z,18.19
2023-05-13T13:06:45.363Z,18.02
2023-05-13T13:09:13.007Z,17.95
2023-05-13T13:11:40.309Z,18.40
2023-05-13T13:14:09.761Z,18.70
2023-05-13T13:16:36.790Z,18.79
2023-05-13T13:19:03.940Z,17.81
2023-05-13T13:21:30.947Z,17.56
2023-05-13T13:23:58.044Z,17.93
2023-05-13T13:26:38.411Z,17.68
2023-05-13T13:29:15.249Z,17.49
2023-05-13T13:31:50.489Z,17.41
2023-05-13T13:34:21.009Z,17.24
2023-05-13T13:36:48.333Z,17.38
2023-05-13T13:39:15.843Z,17.95
2023-05-13T13:41:43.005Z,18.94
2023-05-13T13:44:10.305Z,18.99
2023-05-13T13:46:37.848Z,19.01
2023-05-13T13:49:13.073Z,18.83
2023-05-13T13:51:50.314Z,18.73
2023-05-13T13:54:17.646Z,18.71
2023-05-13T13:56:45.854Z,17.96
2023-05-13T13:59:13.785Z,18.06
2023-05-13T14:01:41.615Z,18.04
2023-05-13T14:04:28.090Z,18.06
2023-05-13T14:06:55.814Z,17.88
2023-05-13T14:09:22.932Z,17.70
2023-05-13T14:11:50.154Z,17.38
2023-05-13T14:14:37.315Z,17.61
2023-05-13T14:17:04.574Z,17.84
2023-05-13T14:19:31.758Z,17.54
2023-05-13T14:21:59.294Z,17.62
2023-05-13T14:24:27.859Z,17.30
2023-05-13T14:26:55.173Z,16.49
2023-05-13T14:29:22.209Z,16.18
2023-05-13T14:31:59.233Z,15.20
2023-05-13T14:34:26.342Z,14.75
2023-05-13T14:36:53.318Z,14.78
2023-05-13T14:39:22.500Z,14.92
2023-05-13T14:41:49.769Z,15.38
2023-05-13T14:44:17.035Z,15.86
2023-05-13T14:46:44.074Z,16.30
2023-05-13T14:49:11.146Z,16.66
2023-05-13T14:51:38.379Z,17.14
2023-05-13T14:54:05.652Z,17.41
2023-05-13T14:56:32.861Z,17.48
2023-05-13T14:59:02.588Z,17.70
2023-05-13T15:01:29.709Z,18.03
2023-05-13T15:04:00.967Z,18.29
2023-05-13T15:06:29.351Z,18.68
2023-05-13T15:08:56.698Z,18.84
2023-05-13T15:11:27.071Z,19.26
2023-05-13T15:13:55.157Z,19.67
2023-05-13T15:16:22.828Z,19.64
2023-05-13T15:18:50.601Z,20.04
2023-05-13T15:21:18.252Z,20.07
2023-05-13T15:23:46.057Z,19.99
2023-05-13T15:26:14.068Z,19.61
2023-05-13T15:28:45.589Z,18.88
2023-05-13T15:31:13.170Z,18.29
2023-05-13T15:33:42.347Z,17.73
2023-05-13T15:36:10.771Z,17.00
2023-05-13T15:38:40.990Z,16.73
2023-05-13T15:41:08.473Z,16.17
2023-05-13T15:43:36.295Z,15.91
2023-05-13T15:46:05.152Z,15.72
2023-05-13T15:48:35.403Z,15.88
2023-05-13T15:51:08.693Z,15.89
2023-05-13T15:53:37.871Z,15.37
2023-05-13T15:56:10.027Z,15.23
2023-05-13T15:58:37.849Z,14.83
2023-05-13T16:03:50.804Z,14.94
2023-05-13T16:06:19.016Z,14.77
2023-05-13T16:08:46.522Z,14.74
2023-05-13T16:11:14.878Z,14.89
2023-05-13T16:13:43.284Z,15.25
2023-05-13T16:16:23.429Z,15.40
2023-05-13T16:18:55.162Z,15.24
2023-05-13T16:21:26.459Z,15.68
2023-05-13T16:24:01.103Z,16.39
2023-05-13T16:26:28.266Z,16.70
2023-05-13T16:28:57.949Z,17.06
2023-05-13T16:31:27.161Z,17.27
2023-05-13T16:33:57.293Z,16.82
2023-05-13T16:36:25.222Z,16.76
2023-05-13T16:38:57.548Z,17.04
2023-05-13T16:41:25.444Z,17.36
2023-05-13T16:43:57.547Z,17.64
2023-05-13T16:46:30.625Z,18.75
2023-05-13T16:49:04.695Z,19.59
2023-05-13T16:51:36.751Z,19.62
2023-05-13T16:54:07.974Z,20.02
2023-05-13T16:59:42.422Z,21.29
2023-05-13T17:02:28.836Z,21.58
2023-05-13T17:04:57.030Z,21.84
2023-05-13T17:07:26.870Z,22.42
2023-05-13T17:09:55.360Z,23.26
2023-05-13T17:12:24.121Z,23.56
2023-05-13T17:14:59.415Z,23.90
2023-05-13T17:17:33.343Z,24.22
2023-05-13T17:20:09.043Z,24.81
2023-05-13T17:22:49.677Z,25.90
2023-05-13T17:25:31.000Z,26.45
2023-05-13T17:28:04.668Z,26.67
2023-05-13T17:30:43.310Z,27.56
2023-05-13T17:33:16.022Z,28.51
2023-05-13T17:35:47.392Z,29.29
2023-05-13T17:38:28.519Z,29.91
2023-05-13T17:44:01.197Z,30.75
2023-05-13T17:50:35.476Z,31.36
2023-05-13T17:56:29.319Z,32.58
2023-05-13T17:59:16.561Z,33.71
2023-05-13T18:01:58.152Z,35.29
2023-05-13T18:05:02.057Z,36.16
2023-05-13T18:07:48.774Z,37.17
2023-05-13T18:16:18.631Z,37.81
2023-05-13T18:18:48.814Z,38.94
2023-05-13T18:21:21.846Z,39.83
2023-05-13T18:23:51.992Z,40.31
2023-05-13T18:26:21.090Z,40.73
2023-05-13T18:28:54.302Z,42.00
2023-05-13T18:31:49.424Z,42.52
2023-05-13T18:34:26.384Z,41.86
2023-05-13T18:39:55.080Z,40.00
2023-05-13T18:42:30.341Z,39.61
2023-05-13T18:45:01.566Z,39.47
2023-05-13T18:57:29.310Z,40.04
2023-05-13T19:00:12.456Z,40.39
2023-05-13T19:10:55.740Z,41.77
2023-05-13T19:14:40.586Z,41.92
2023-05-13T19:23:55.461Z,45.31
2023-05-13T19:27:55.663Z,46.48
2023-05-13T19:56:07.255Z,47.57
2023-05-13T19:59:57.240Z,48.12
2023-05-13T20:02:24.974Z,48.19
2023-05-13T20:08:15.687Z,48.24
2023-05-13T20:24:22.256Z,48.38
2023-05-13T20:26:49.228Z,48.59
2023-05-13T20:29:25.082Z,48.69
2023-05-13T20:31:54.233Z,48.98
2023-05-13T20:34:36.567Z,49.42
2023-05-13T20:37:06.391Z,49.64
2023-05-13T20:39:44.742Z,49.98
2023-05-13T20:42:12.432Z,50.43
2023-05-13T20:44:41.598Z,50.66
2023-05-13T20:47:18.392Z,50.84
2023-05-13T20:49:52.950Z,51.02
2023-05-13T20:52:20.736Z,51.22
2023-05-13T20:54:53.332Z,51.41
2023-05-13T20:57:29.912Z,51.35
2023-05-13T20:59:58.343Z,51.38
2023-05-13T21:02:30.497Z,51.40
2023-05-13T21:04:57.654Z,51.65
2023-05-13T21:07:25.414Z,52.38
2023-05-13T21:09:55.898Z,52.85
2023-05-13T21:12:26.761Z,52.76
2023-05-13T21:14:53.891Z,52.83
2023-05-13T21:17:23.361Z,52.90
2023-05-13T21:19:51.184Z,52.73
2023-05-13T21:22:20.440Z,52.69
2023-05-13T21:24:51.451Z,51.92
2023-05-13T21:27:19.843Z,51.27
2023-05-13T21:29:48.361Z,51.16
2023-05-13T21:32:19.049Z,50.96
2023-05-13T21:34:46.196Z,50.85
2023-05-13T21:37:13.409Z,51.06
2023-05-13T21:39:40.469Z,51.25
2023-05-13T21:42:07.550Z,51.56
2023-05-13T21:44:34.603Z,51.62
2023-05-13T21:47:01.751Z,51.72
2023-05-13T21:49:28.859Z,51.77
2023-05-13T21:51:56.340Z,51.95
2023-05-13T21:54:23.411Z,52.18
2023-05-13T21:56:50.541Z,52.35
2023-05-13T21:59:17.969Z,52.46
2023-05-13T22:01:45.065Z,52.61
2023-05-13T22:04:12.187Z,52.61
2023-05-13T22:06:39.264Z,52.66
2023-05-13T22:09:07.201Z,52.71
2023-05-13T22:11:34.443Z,52.76
2023-05-13T22:14:01.553Z,52.90
2023-05-13T22:16:28.676Z,53.08
2023-05-13T22:18:58.849Z,53.11
2023-05-13T22:21:26.284Z,53.12
2023-05-13T22:23:53.482Z,53.01
2023-05-13T22:26:20.473Z,52.95
2023-05-13T22:28:48.776Z,52.96
2023-05-13T22:31:17.680Z,52.93
2023-05-13T22:33:46.192Z,53.06
2023-05-13T22:36:16.294Z,53.19
2023-05-13T22:38:43.380Z,53.38
2023-05-13T22:41:11.755Z,53.42
2023-05-13T22:43:38.788Z,53.59
2023-05-13T22:46:07.408Z,53.80
2023-05-13T22:48:34.522Z,53.99
2023-05-13T22:51:01.599Z,54.38
2023-05-13T22:53:28.645Z,54.66
2023-05-13T22:55:55.869Z,54.92
2023-05-13T22:58:22.890Z,55.14
2023-05-13T23:00:50.139Z,55.37
2023-05-13T23:03:17.367Z,55.50
2023-05-13T23:05:44.496Z,55.73
2023-05-13T23:08:11.470Z,55.78
2023-05-13T23:10:38.606Z,55.94
2023-05-13T23:13:08.248Z,56.16
2023-05-13T23:15:36.945Z,56.52
2023-05-13T23:18:04.222Z,56.64
2023-05-13T23:20:31.280Z,56.75
2023-05-13T23:22:58.310Z,56.84
2023-05-13T23:25:26.056Z,56.98
2023-05-13T23:27:53.069Z,57.15
2023-05-13T23:30:20.215Z,57.19
2023-05-13T23:32:47.316Z,57.28
2023-05-13T23:35:14.449Z,57.50
2023-05-13T23:37:41.489Z,57.59
2023-05-13T23:40:09.068Z,57.49
2023-05-13T23:42:36.260Z,57.43
2023-05-13T23:45:03.594Z,57.40
2023-05-13T23:47:30.717Z,57.28
2023-05-13T23:49:58.351Z,57.22
2023-05-13T23:52:25.441Z,57.06
2023-05-13T23:54:52.485Z,56.98
2023-05-13T23:57:19.576Z,57.03
2023-05-13T23:59:46.545Z,56.78
